Time;durP1;ratioP1;P1;durP2;ratioP2;P2;SDS_P1;SDS_P2;PMS_P1;PMS_P2;Temp;Humidity;BMP_temperature;BMP_pressure;BME280_temperature;BME280_humidity;BME280_pressure;Samples;Min_cycle;Max_cycle;Signal;HPM_P1;HPM_P2
2022/12/17 13:06:32;;;;;;;20.17;12.75;;;;;;;-5.56;82.91;102562.13;5014031;28;20026;-77
2022/12/17 13:09:05;;;;;;;21.65;12.65;;;;;;;-5.55;83.23;102537.03;5014021;28;20505;-75
2022/12/17 13:11:37;;;;;;;20.13;12.70;;;;;;;-5.67;82.48;102553.59;5013679;28;20021;-76
2022/12/17 13:14:13;;;;;;;18.08;11.27;;;;;;;-5.83;83.99;102546.81;5014364;28;20076;-78
2022/12/17 13:16:45;;;;;;;19.17;10.57;;;;;;;-5.77;83.54;102547.66;5017638;28;20030;-74
2022/12/17 13:19:30;;;;;;;16.33;10.45;;;;;;;-5.63;83.58;102550.94;4995299;28;20030;-76
2022/12/17 13:22:10;;;;;;;16.50;9.98;;;;;;;-5.75;83.06;102538.13;4996083;28;20165;-74
2022/12/17 13:24:37;;;;;;;17.58;10.90;;;;;;;-5.83;83.42;102555.47;4996847;28;20030;-76
2022/12/17 13:27:03;;;;;;;21.48;12.70;;;;;;;-5.86;84.35;102552.91;4995374;28;20030;-74
2022/12/17 13:29:32;;;;;;;18.58;11.23;;;;;;;-5.76;85.22;102538.13;5001810;28;20338;-74
2022/12/17 13:32:14;;;;;;;26.17;15.00;;;;;;;-5.66;84.60;102530.22;4998524;28;20037;-75
2022/12/17 13:35:04;;;;;;;20.35;11.90;;;;;;;-5.43;84.40;102542.97;4987155;28;20030;-74
2022/12/17 13:37:43;;;;;;;20.67;11.93;;;;;;;-5.40;84.63;102542.06;4994498;28;20121;-73
2022/12/17 13:40:46;;;;;;;14.43;9.32;;;;;;;-5.35;84.24;102538.53;5004423;28;20024;-74
2022/12/17 13:43:16;;;;;;;21.08;11.75;;;;;;;-5.27;83.81;102540.16;4997372;28;20117;-75
2022/12/17 13:45:42;;;;;;;18.38;11.32;;;;;;;-5.30;83.42;102535.88;5009689;28;20026;-74
2022/12/17 13:48:19;;;;;;;23.15;11.75;;;;;;;-5.36;83.95;102517.78;4991972;28;20041;-73
2022/12/17 13:51:02;;;;;;;16.95;9.73;;;;;;;-5.36;83.71;102530.75;5012553;28;20030;-73
2022/12/17 13:53:32;;;;;;;20.27;11.43;;;;;;;-5.39;84.98;102528.19;5011542;28;20034;-75
2022/12/17 13:55:59;;;;;;;22.63;11.57;;;;;;;-5.40;83.98;102524.75;4995159;28;20038;-74
2022/12/17 13:58:30;;;;;;;23.13;11.65;;;;;;;-5.40;84.57;102537.72;5011095;28;20033;-73
2022/12/17 14:01:04;;;;;;;19.52;11.55;;;;;;;-5.33;84.35;102533.31;5013081;28;20026;-75
2022/12/17 14:03:30;;;;;;;26.15;13.75;;;;;;;-5.27;83.76;102545.34;5013487;28;20041;-75
2022/12/17 14:05:56;;;;;;;25.53;13.50;;;;;;;-5.23;84.17;102550.50;5011643;28;20028;-78
2022/12/17 14:08:27;;;;;;;20.13;11.80;;;;;;;-5.25;83.58;102551.41;4995312;28;20347;-71
2022/12/17 14:13:40;;;;;;;21.80;12.05;;;;;;;-5.25;84.26;102546.19;4999584;28;20033;-76
2022/12/17 14:16:06;;;;;;;20.60;11.63;;;;;;;-5.20;84.89;102555.69;5008925;28;20397;-76
2022/12/17 14:18:32;;;;;;;18.93;11.60;;;;;;;-5.17;84.64;102550.44;5012957;28;20026;-73
2022/12/17 14:20:57;;;;;;;18.10;11.07;;;;;;;-5.36;83.89;102538.53;4993668;28;20104;-76
2022/12/17 14:23:32;;;;;;;16.95;9.68;;;;;;;-5.68;84.17;102525.94;5013396;28;20030;-79
2022/12/17 14:25:59;;;;;;;20.85;11.15;;;;;;;-5.73;85.29;102549.34;4995223;28;20042;-78
2022/12/17 14:28:33;;;;;;;21.23;12.18;;;;;;;-5.72;85.50;102553.66;5012287;28;20228;-76
2022/12/17 14:31:23;;;;;;;18.48;10.32;;;;;;;-5.78;86.55;102542.44;4994685;28;20040;-79
2022/12/17 14:34:12;;;;;;;25.20;12.32;;;;;;;-5.72;86.40;102551.06;5012711;28;20109;-74
2022/12/17 14:36:40;;;;;;;23.30;10.82;;;;;;;-5.72;87.36;102542.41;4995261;28;20080;-77
2022/12/17 14:39:19;;;;;;;17.88;11.32;;;;;;;-5.62;86.56;102562.19;4995513;28;20038;-76
2022/12/17 14:44:30;;;;;;;22.55;12.80;;;;;;;-5.57;87.08;102543.97;4992668;28;20000;-74
2022/12/17 14:47:26;;;;;;;24.42;12.35;;;;;;;-5.57;86.35;102547.41;4992843;28;20041;-74
2022/12/17 14:49:58;;;;;;;20.42;11.43;;;;;;;-5.58;86.43;102553.50;4984118;28;20389;-74
2022/12/17 14:52:40;;;;;;;20.60;11.63;;;;;;;-5.63;86.06;102539.72;5012394;28;20033;-74
2022/12/17 14:55:24;;;;;;;19.60;11.63;;;;;;;-5.63;87.01;102552.69;4995049;28;20030;-74
2022/12/17 14:57:51;;;;;;;18.83;10.80;;;;;;;-5.52;87.45;102545.63;4994728;28;20061;-77
2022/12/17 15:00:17;;;;;;;18.23;10.95;;;;;;;-5.51;87.52;102529.19;5012508;28;20446;-72
2022/12/17 15:02:56;;;;;;;21.38;11.68;;;;;;;-5.36;87.10;102555.00;5013044;28;20053;-74
2022/12/17 15:05:24;;;;;;;20.50;11.98;;;;;;;-5.36;86.23;102542.00;4978856;28;20481;-73
2022/12/17 15:07:50;;;;;;;19.20;10.90;;;;;;;-5.33;87.28;102538.50;5012013;28;20068;-75
2022/12/17 15:10:19;;;;;;;21.35;12.18;;;;;;;-5.22;86.65;102546.16;5012078;28;20062;-75
2022/12/17 15:12:45;;;;;;;22.33;12.60;;;;;;;-5.14;86.24;102544.34;5026824;28;20079;-73
2022/12/17 15:15:15;;;;;;;22.50;11.80;;;;;;;-5.08;85.53;102549.47;5026827;28;20085;-74
2022/12/17 15:17:41;;;;;;;22.60;11.85;;;;;;;-5.11;84.86;102549.50;5013060;28;20103;-75
2022/12/17 15:20:18;;;;;;;20.73;11.13;;;;;;;-5.12;85.08;102548.66;5012294;28;20486;-76
2022/12/17 15:22:46;;;;;;;20.25;12.05;;;;;;;-5.14;84.63;102539.16;4994907;28;20358;-75
2022/12/17 15:25:20;;;;;;;24.73;12.50;;;;;;;-5.15;85.21;102547.81;5023000;28;20117;-76
2022/12/17 15:27:46;;;;;;;24.17;13.48;;;;;;;-5.23;85.70;102536.66;5016415;28;20377;-74
2022/12/17 15:30:16;;;;;;;23.20;12.60;;;;;;;-5.18;85.83;102543.53;5013190;28;20112;-74
2022/12/17 15:32:44;;;;;;;20.75;12.23;;;;;;;-5.28;85.69;102541.03;5012492;28;20033;-74
2022/12/17 15:35:12;;;;;;;20.33;13.20;;;;;;;-5.37;86.40;102557.59;5011738;28;20042;-78
2022/12/17 15:37:38;;;;;;;20.35;12.68;;;;;;;-5.49;85.72;102548.22;5012604;28;20026;-74
2022/12/17 15:40:05;;;;;;;22.15;10.60;;;;;;;-5.48;85.83;102544.75;5012181;28;20045;-74
2022/12/17 15:45:15;;;;;;;22.75;13.23;;;;;;;-5.33;85.96;102544.56;5012399;28;20057;-74
2022/12/17 15:47:40;;;;;;;22.97;11.67;;;;;;;-5.19;85.79;102547.00;5012700;28;20030;-76
2022/12/17 15:50:10;;;;;;;20.27;13.60;;;;;;;-5.09;86.29;102543.41;4994052;28;20025;-75
2022/12/17 15:52:35;;;;;;;22.95;12.43;;;;;;;-4.97;85.22;102537.19;4993606;28;20041;-74
2022/12/17 15:55:01;;;;;;;15.63;10.40;;;;;;;-5.15;84.29;102521.84;4996212;28;20038;-77
2022/12/17 15:57:26;;;;;;;18.93;11.13;;;;;;;-4.97;84.51;102550.16;5016255;28;20053;-75
2022/12/17 15:59:55;;;;;;;22.13;12.20;;;;;;;-5.09;83.79;102529.56;4996589;28;20052;-76
2022/12/17 16:02:41;;;;;;;18.85;10.48;;;;;;;-5.26;83.02;102514.19;5014009;28;20065;-76
2022/12/17 16:05:16;;;;;;;20.25;11.05;;;;;;;-5.33;84.55;102492.63;4980430;28;20034;-78
2022/12/17 16:07:42;;;;;;;20.83;12.05;;;;;;;-5.05;84.77;102523.44;5015446;28;20547;-76
2022/12/17 16:10:12;;;;;;;13.65;8.82;;;;;;;-5.12;83.29;102516.63;4981137;28;20140;-76
2022/12/17 16:12:39;;;;;;;13.35;8.38;;;;;;;-5.20;83.64;102514.13;4982701;28;20030;-76
2022/12/17 16:15:06;;;;;;;18.25;10.57;;;;;;;-5.09;83.64;102532.16;5005967;28;20034;-75
2022/12/17 16:17:33;;;;;;;16.15;9.98;;;;;;;-5.03;84.22;102535.53;5016869;28;20041;-76
2022/12/17 16:20:00;;;;;;;12.77;7.15;;;;;;;-5.01;84.20;102530.31;5016621;28;20033;-76
2022/12/17 16:22:26;;;;;;;14.50;8.63;;;;;;;-4.99;83.93;102528.53;5025065;28;20069;-78
2022/12/17 16:24:52;;;;;;;16.33;9.13;;;;;;;-4.93;83.48;102532.78;5036896;28;20033;-76
2022/12/17 16:27:19;;;;;;;16.77;8.97;;;;;;;-4.93;83.77;102536.25;5035118;28;20017;-78
2022/12/17 16:29:46;;;;;;;14.07;8.68;;;;;;;-4.92;83.20;102537.97;5034273;28;20037;-76
2022/12/17 16:32:15;;;;;;;22.00;12.18;;;;;;;-4.83;83.80;102537.00;5002058;28;20025;-77
2022/12/17 16:34:40;;;;;;;16.73;9.45;;;;;;;-4.83;83.93;102545.66;5035860;28;20033;-76
2022/12/17 16:40:47;;;;;;;17.75;11.35;;;;;;;-5.23;84.36;102500.28;5032127;28;20043;-78
2022/12/17 16:43:33;;;;;;;19.23;11.70;;;;;;;-5.30;84.17;102504.72;4998979;28;20060;-78
2022/12/17 16:46:02;;;;;;;22.33;11.63;;;;;;;-5.55;84.16;102482.50;4999501;28;20030;-75
2022/12/17 16:49:05;;;;;;;;;;;;;;;-5.13;85.44;102544.34;4999716;28;20018;-78
2022/12/17 16:52:06;;;;;;;18.67;12.13;;;;;;;-5.54;85.33;102473.84;5014322;28;19909;-80
2022/12/17 16:54:53;;;;;;;18.60;11.25;;;;;;;-5.05;85.33;102552.88;4971834;28;20051;-78
2022/12/17 17:09:40;;;;;;;19.60;9.90;;;;;;;-5.05;84.82;102549.41;4863673;29;20052;-78
2022/12/17 17:12:29;;;;;;;20.00;11.20;;;;;;;-5.27;85.05;102517.66;4860489;29;20097;-76
2022/12/17 17:15:49;;;;;;;19.13;12.30;;;;;;;-5.03;85.49;102539.88;4883915;29;20036;-77
2022/12/17 17:34:21;;;;;;;18.17;10.60;;;;;;;-5.02;84.54;102559.78;4855009;29;20045;-76
2022/12/17 17:36:50;;;;;;;21.60;10.85;;;;;;;-5.15;84.85;102553.88;4916169;29;20050;-75
2022/12/17 17:46:39;;;;;;;17.40;9.85;;;;;;;-5.28;85.95;102556.63;4883440;29;20069;-75
2022/12/17 17:49:06;;;;;;;13.75;7.75;;;;;;;-5.30;86.13;102556.66;4915602;29;20631;-72
2022/12/17 17:51:36;;;;;;;13.73;8.52;;;;;;;-5.41;85.76;102516.97;4915067;29;20044;-76
2022/12/17 17:56:52;;;;;;;18.90;11.45;;;;;;;-5.06;84.53;102545.97;4839548;29;20367;-76
2022/12/17 17:59:24;;;;;;;14.93;10.03;;;;;;;-5.05;84.82;102568.47;4964301;28;20069;-77
2022/12/17 18:05:43;;;;;;;11.43;7.68;;;;;;;-5.18;85.05;102589.44;5007275;28;20037;-75
2022/12/17 18:08:14;;;;;;;12.10;7.53;;;;;;;-5.29;84.58;102558.38;4999843;28;20080;-77
2022/12/17 18:10:40;;;;;;;14.00;8.50;;;;;;;-5.06;85.23;102581.47;5013755;28;20033;-75
2022/12/17 18:15:50;;;;;;;11.43;7.38;;;;;;;-5.22;85.21;102578.19;5012895;28;20044;-75
2022/12/17 18:18:15;;;;;;;13.87;9.27;;;;;;;-5.36;86.93;102567.97;5013029;28;20029;-73
2022/12/17 18:20:41;;;;;;;17.20;8.73;;;;;;;-5.36;86.45;102580.94;5007934;28;20524;-74
2022/12/17 18:23:06;;;;;;;12.40;7.80;;;;;;;-5.47;87.05;102576.75;4960668;28;20470;-74
2022/12/17 18:25:33;;;;;;;13.17;8.03;;;;;;;-5.62;86.99;102557.00;4976490;28;20034;-73
2022/12/17 18:27:59;;;;;;;16.13;9.27;;;;;;;-5.53;87.31;102561.22;4993489;28;20033;-74
2022/12/17 18:30:27;;;;;;;10.57;7.50;;;;;;;-5.52;87.80;102574.19;4993885;28;20037;-73
2022/12/17 18:32:53;;;;;;;13.80;8.40;;;;;;;-5.61;87.11;102574.28;4976281;28;20030;-71
2022/12/17 18:35:19;;;;;;;15.52;8.23;;;;;;;-5.44;87.28;102587.13;4993559;28;20034;-73
2022/12/17 18:37:45;;;;;;;16.92;7.97;;;;;;;-5.27;87.47;102579.13;4976798;28;20128;-74
2022/12/17 18:40:13;;;;;;;12.13;8.17;;;;;;;-5.15;86.56;102574.66;4994190;28;20084;-72
2022/12/17 18:45:23;;;;;;;20.67;11.65;;;;;;;-5.16;85.73;102595.47;4979554;28;20034;-75
2022/12/17 18:47:49;;;;;;;18.17;10.10;;;;;;;-5.26;86.77;102591.22;4960156;28;20026;-75
2022/12/17 18:50:15;;;;;;;14.30;9.43;;;;;;;-5.37;86.94;102588.75;4993519;28;20378;-74
2022/12/17 18:52:40;;;;;;;13.83;8.37;;;;;;;-5.42;86.83;102596.59;4992711;28;20030;-72
2022/12/17 18:55:09;;;;;;;13.50;8.47;;;;;;;-5.33;86.84;102590.44;4975612;28;20037;-74
2022/12/17 18:57:39;;;;;;;14.90;8.55;;;;;;;-5.21;86.62;102586.84;4961240;28;20030;-73
2022/12/17 19:00:05;;;;;;;14.03;8.50;;;;;;;-5.14;86.08;102591.97;4997396;28;20042;-78
2022/12/17 19:02:31;;;;;;;12.93;8.82;;;;;;;-5.14;85.88;102581.56;5001508;28;20424;-72
2022/12/17 19:04:56;;;;;;;10.93;7.70;;;;;;;-5.15;85.30;102585.06;5010462;28;20026;-73
2022/12/17 19:07:25;;;;;;;12.23;8.30;;;;;;;-5.19;85.77;102583.38;5010677;28;20025;-74
2022/12/17 19:09:50;;;;;;;11.57;8.15;;;;;;;-5.25;86.19;102562.63;5018001;28;20089;-76
2022/12/17 19:12:16;;;;;;;14.90;9.17;;;;;;;-5.21;85.90;102585.09;5034811;28;20045;-76
2022/12/17 19:14:44;;;;;;;12.57;8.85;;;;;;;-5.23;86.33;102591.19;5014220;28;20045;-74
2022/12/17 19:17:10;;;;;;;11.17;8.20;;;;;;;-5.33;86.11;102567.06;5029942;28;20090;-74
2022/12/17 19:19:43;;;;;;;13.27;8.90;;;;;;;-5.37;86.37;102573.19;5030889;28;20086;-71
2022/12/17 19:22:09;;;;;;;15.43;9.20;;;;;;;-5.33;86.53;102590.44;5023895;28;20025;-75
2022/12/17 19:24:36;;;;;;;13.67;8.03;;;;;;;-5.26;86.87;102592.09;5015228;28;20040;-74
2022/12/17 19:27:01;;;;;;;15.60;10.27;;;;;;;-5.21;86.80;102586.84;4979314;28;20057;-72
2022/12/17 19:29:35;;;;;;;9.90;8.07;;;;;;;-5.19;85.99;102598.09;5014278;28;20049;-75
2022/12/17 19:32:02;;;;;;;11.15;7.32;;;;;;;-5.25;86.13;102592.94;5016774;28;20037;-74
2022/12/17 19:34:27;;;;;;;11.53;8.10;;;;;;;-5.39;86.07;102593.97;5015816;28;20046;-74
2022/12/17 19:36:53;;;;;;;16.07;9.23;;;;;;;-5.36;87.71;102588.75;4998405;28;20121;-75
2022/12/17 19:39:21;;;;;;;14.30;8.13;;;;;;;-5.36;87.24;102569.72;5016022;28;20026;-75
2022/12/17 19:41:49;;;;;;;12.82;7.88;;;;;;;-5.41;86.12;102566.31;5015968;28;20066;-76
2022/12/17 19:44:19;;;;;;;11.95;7.85;;;;;;;-5.15;85.83;102611.03;5016378;28;20793;-75
2022/12/17 19:46:48;;;;;;;12.80;7.55;;;;;;;-5.21;86.08;102589.44;4998144;28;20450;-75
2022/12/17 19:49:16;;;;;;;16.60;10.30;;;;;;;-5.17;85.02;102606.72;4998926;28;20351;-76
2022/12/17 19:51:43;;;;;;;10.10;7.53;;;;;;;-5.16;85.44;102592.88;4998390;28;20036;-77
2022/12/17 19:54:13;;;;;;;12.90;8.55;;;;;;;-5.34;84.64;102587.00;4998006;28;20030;-77
2022/12/17 19:56:43;;;;;;;11.48;8.45;;;;;;;-5.30;85.57;102600.78;4998144;28;20029;-76
2022/12/17 19:59:09;;;;;;;12.85;7.57;;;;;;;-5.21;85.71;102599.81;5015465;28;20516;-75
2022/12/17 20:01:47;;;;;;;12.23;8.25;;;;;;;-5.21;86.04;102589.44;4997702;28;20026;-75
2022/12/17 20:04:15;;;;;;;11.90;8.15;;;;;;;-5.15;84.69;102598.03;5015229;28;20326;-78
2022/12/17 20:06:44;;;;;;;12.77;8.50;;;;;;;-5.34;84.83;102597.38;5016160;28;20029;-76
2022/12/17 20:09:14;;;;;;;15.05;8.93;;;;;;;-5.38;85.92;102593.09;4998350;28;20049;-78
2022/12/17 20:11:47;;;;;;;13.00;8.98;;;;;;;-5.30;86.22;102599.06;5015712;28;20107;-73
2022/12/17 20:14:16;;;;;;;13.00;8.25;;;;;;;-5.36;85.09;102580.09;4998402;28;20036;-78
2022/12/17 20:16:49;;;;;;;14.60;8.75;;;;;;;-5.31;85.00;102579.16;4997739;28;20069;-75
2022/12/17 20:19:21;;;;;;;10.90;6.93;;;;;;;-5.32;84.02;102581.78;5015847;28;20056;-75
2022/12/17 20:21:50;;;;;;;12.80;7.97;;;;;;;-5.43;83.60;102584.50;5015885;28;20125;-76
2022/12/17 20:24:16;;;;;;;15.63;9.15;;;;;;;-5.45;84.70;102575.00;4998022;28;20025;-77
2022/12/17 20:26:43;;;;;;;12.95;7.75;;;;;;;-5.45;84.96;102581.06;4997908;28;20119;-78
2022/12/17 20:29:14;;;;;;;14.38;9.88;;;;;;;-5.48;85.08;102573.31;4997459;28;20053;-77
2022/12/17 20:31:45;;;;;;;13.15;8.18;;;;;;;-5.37;85.60;102574.03;4998781;28;20616;-75
2022/12/17 20:34:13;;;;;;;12.68;8.40;;;;;;;-5.40;84.73;102565.44;5016402;28;20037;-73
2022/12/17 20:36:41;;;;;;;10.20;6.57;;;;;;;-5.54;84.48;102555.19;5016062;28;20026;-75
2022/12/17 20:39:09;;;;;;;14.15;8.23;;;;;;;-5.51;84.71;102575.06;5015803;28;20033;-74
2022/12/17 20:41:35;;;;;;;15.13;8.50;;;;;;;-5.71;84.55;102550.19;5015451;28;20025;-75
2022/12/17 20:44:06;;;;;;;13.70;9.37;;;;;;;-5.45;85.45;102575.88;5015100;28;20120;-76
2022/12/17 20:46:35;;;;;;;13.55;9.38;;;;;;;-5.38;85.06;102568.88;5015749;28;20476;-74
2022/12/17 20:49:02;;;;;;;15.45;9.68;;;;;;;-5.27;84.87;102573.94;5015586;28;20088;-75
2022/12/17 20:51:28;;;;;;;16.02;10.32;;;;;;;-5.19;85.25;102578.19;5015503;28;20381;-76
2022/12/17 20:53:55;;;;;;;16.52;10.80;;;;;;;-5.30;84.45;102569.63;5015255;28;20034;-76
2022/12/17 20:56:24;;;;;;;17.33;9.70;;;;;;;-5.25;84.51;102567.84;5015886;28;20026;-76
2022/12/17 20:58:59;;;;;;;16.60;8.32;;;;;;;-5.36;84.74;102575.75;5016254;28;20033;-73
2022/12/17 21:01:26;;;;;;;14.77;9.48;;;;;;;-5.33;84.41;102588.72;5019542;28;20473;-77
2022/12/17 21:03:53;;;;;;;11.90;8.23;;;;;;;-5.48;84.59;102555.13;5023883;28;20061;-75
2022/12/17 21:06:26;;;;;;;12.32;9.38;;;;;;;-5.15;84.29;102579.00;4999835;28;20072;-75
2022/12/17 21:08:53;;;;;;;15.20;8.77;;;;;;;-5.05;83.30;102583.19;5017557;28;20045;-74
2022/12/17 21:11:22;;;;;;;11.82;7.72;;;;;;;-5.11;82.86;102572.88;5016395;28;20056;-75
2022/12/17 21:13:48;;;;;;;11.50;7.95;;;;;;;-5.25;82.87;102566.97;5015373;28;20068;-74
2022/12/17 21:16:20;;;;;;;13.93;8.45;;;;;;;-5.31;84.01;102575.69;4997581;28;20041;-76
2022/12/17 21:18:47;;;;;;;16.20;8.32;;;;;;;-5.38;83.35;102568.88;4997634;28;20041;-74
2022/12/17 21:21:19;;;;;;;10.83;7.63;;;;;;;-5.47;83.59;102567.25;5014279;28;20026;-75
2022/12/17 21:23:46;;;;;;;12.18;7.53;;;;;;;-5.35;84.47;102581.81;4996960;28;20117;-76
2022/12/17 21:26:13;;;;;;;11.30;7.75;;;;;;;-5.18;83.75;102574.69;5026063;28;20040;-74
2022/12/17 21:28:41;;;;;;;15.27;8.32;;;;;;;-5.05;84.24;102580.59;5018962;28;20053;-73
2022/12/17 21:31:19;;;;;;;14.13;8.98;;;;;;;-4.92;84.19;102582.16;5020383;28;20068;-73
2022/12/17 21:33:48;;;;;;;15.23;9.43;;;;;;;-4.93;82.68;102570.03;5030288;28;20049;-74
2022/12/17 21:36:13;;;;;;;;;;;;;;;-5.00;81.97;102571.00;5015063;28;20084;-74
2022/12/17 21:38:39;;;;;;;12.77;8.33;;;;;;;-5.13;82.63;102554.72;4996667;28;19910;-74
2022/12/17 21:41:07;;;;;;;10.20;7.53;;;;;;;-5.21;82.35;102559.13;5014225;28;20485;-75
2022/12/17 21:43:33;;;;;;;11.68;8.30;;;;;;;-5.18;82.87;102566.91;5014198;28;20030;-74
2022/12/17 21:45:59;;;;;;;9.88;7.25;;;;;;;-5.35;82.80;102561.91;5013659;28;20450;-75
2022/12/17 21:48:24;;;;;;;12.20;7.90;;;;;;;-5.57;83.82;102564.75;5013679;28;20025;-77
2022/12/17 21:50:50;;;;;;;12.73;8.77;;;;;;;-5.64;83.86;102570.00;4996265;28;20030;-75
2022/12/17 21:53:15;;;;;;;14.23;8.13;;;;;;;-5.75;84.52;102568.41;5013639;28;20087;-74
2022/12/17 21:55:41;;;;;;;12.70;8.13;;;;;;;-5.83;85.46;102565.00;5013654;28;20037;-75
2022/12/17 21:58:07;;;;;;;15.80;9.67;;;;;;;-5.77;85.37;102568.41;5013198;28;20022;-74
2022/12/17 22:00:34;;;;;;;12.45;7.35;;;;;;;-5.58;85.05;102570.81;5014444;28;20036;-75
2022/12/17 22:03:00;;;;;;;12.07;8.63;;;;;;;-5.36;85.08;102570.56;5000611;28;20037;-78
2022/12/17 22:05:26;;;;;;;10.95;8.55;;;;;;;-5.32;83.88;102561.84;5015035;28;20043;-75
2022/12/17 22:07:52;;;;;;;14.83;9.23;;;;;;;-5.45;83.81;102556.84;5014209;28;20120;-73
2022/12/17 22:10:17;;;;;;;13.90;8.00;;;;;;;-5.56;83.58;102562.13;4995871;28;20038;-74
2022/12/17 22:15:27;;;;;;;11.23;7.53;;;;;;;-5.68;84.38;102570.03;5013549;28;20384;-74
2022/12/17 22:17:54;;;;;;;12.60;8.00;;;;;;;-5.67;85.02;102569.16;5013412;28;20034;-75
2022/12/17 22:20:21;;;;;;;11.30;7.80;;;;;;;-5.62;83.76;102572.56;5013325;28;20052;-74
2022/12/17 22:22:47;;;;;;;12.52;8.40;;;;;;;-5.70;84.22;102571.81;5012935;28;20036;-73
2022/12/17 22:25:13;;;;;;;12.30;8.25;;;;;;;-5.58;84.79;102573.41;5013298;28;20033;-75
2022/12/17 22:27:40;;;;;;;13.27;9.00;;;;;;;-5.62;84.44;102559.59;4995491;28;20025;-74
2022/12/17 22:33:01;;;;;;;14.13;9.00;;;;;;;-5.81;85.24;102558.03;5013235;28;20536;-74
2022/12/17 22:35:32;;;;;;;11.75;8.63;;;;;;;-5.72;86.06;102570.97;5013041;28;20049;-74
2022/12/17 22:37:58;;;;;;;11.50;8.40;;;;;;;-5.95;84.85;102527.94;5013317;28;20053;-74
2022/12/17 22:40:23;;;;;;;14.63;8.73;;;;;;;-5.72;85.71;102565.75;5013202;28;20033;-72
2022/12/17 22:45:36;;;;;;;14.40;8.55;;;;;;;-5.79;85.19;102558.88;4998302;28;20034;-75
2022/12/17 22:48:01;;;;;;;14.98;8.82;;;;;;;-5.79;85.19;102574.47;5012842;28;20120;-75
2022/12/17 22:50:27;;;;;;;12.53;8.43;;;;;;;-5.74;85.90;102570.13;5013048;28;20117;-75
2022/12/17 22:52:52;;;;;;;14.13;9.33;;;;;;;-5.74;85.18;102568.38;4994797;28;20084;-73
2022/12/17 22:55:18;;;;;;;11.73;8.07;;;;;;;-5.78;85.17;102564.09;5012954;28;20029;-74
2022/12/17 22:57:43;;;;;;;14.37;9.83;;;;;;;-5.88;85.10;102533.91;5012719;28;20389;-74
2022/12/17 23:00:20;;;;;;;12.97;9.33;;;;;;;-5.76;85.34;102564.09;4995257;28;20029;-73
2022/12/17 23:02:45;;;;;;;15.60;6.35;;;;;;;-5.67;84.97;102576.97;5012680;28;20022;-74
2022/12/17 23:05:11;;;;;;;10.87;7.97;;;;;;;-5.67;84.91;102554.47;5011985;28;20037;-75
2022/12/17 23:07:36;;;;;;;10.50;7.83;;;;;;;-5.53;84.99;102566.41;5013302;28;20033;-74
2022/12/17 23:10:03;;;;;;;11.97;7.60;;;;;;;-5.51;83.63;102570.72;5012745;28;20076;-72
2022/12/17 23:15:12;;;;;;;9.75;7.93;;;;;;;-5.36;84.80;102560.19;5012407;28;20033;-76
2022/12/17 23:17:38;;;;;;;9.50;7.33;;;;;;;-5.23;84.45;102568.69;5012283;28;20018;-76
2022/12/17 23:20:04;;;;;;;12.10;8.23;;;;;;;-5.20;83.68;102566.06;5012059;28;20125;-73
2022/12/17 23:22:29;;;;;;;10.55;7.32;;;;;;;-5.23;83.37;102571.28;5012645;28;20156;-73
2022/12/17 23:24:55;;;;;;;12.03;7.77;;;;;;;-5.42;83.26;102557.66;5012624;28;20113;-75
2022/12/17 23:27:21;;;;;;;10.53;8.60;;;;;;;-5.46;84.03;102579.34;4995325;28;20347;-74
2022/12/17 23:29:46;;;;;;;10.37;7.50;;;;;;;-5.64;83.43;102548.38;5012708;28;20141;-74
2022/12/17 23:32:12;;;;;;;11.10;8.20;;;;;;;-5.66;83.33;102560.50;5012833;28;20417;-75
2022/12/17 23:34:37;;;;;;;10.63;7.03;;;;;;;-5.59;84.15;102556.97;5012812;28;20424;-76
2022/12/17 23:37:03;;;;;;;10.40;7.57;;;;;;;-5.43;83.66;102557.69;5012816;28;20033;-74
2022/12/17 23:39:28;;;;;;;9.63;8.00;;;;;;;-5.37;83.50;102555.00;4994827;28;20429;-75
2022/12/17 23:41:54;;;;;;;9.50;7.47;;;;;;;-5.37;83.71;102558.47;5012482;28;20038;-74
2022/12/17 23:44:19;;;;;;;12.23;7.87;;;;;;;-5.49;84.28;102544.75;5013332;28;20079;-73
2022/12/17 23:46:45;;;;;;;10.33;8.07;;;;;;;-5.40;84.23;102558.50;5012059;28;20030;-74
2022/12/17 23:49:10;;;;;;;11.83;7.53;;;;;;;-5.36;83.96;102549.78;5012780;28;20037;-74
2022/12/17 23:51:36;;;;;;;11.73;8.20;;;;;;;-5.46;83.70;102545.59;5012230;28;20032;-74
2022/12/17 23:54:01;;;;;;;11.13;8.77;;;;;;;-5.62;83.33;102552.66;4994754;28;20487;-74
2022/12/17 23:56:27;;;;;;;12.47;7.83;;;;;;;-5.68;84.41;102564.84;5012631;28;20042;-74
2022/12/17 23:58:56;;;;;;;11.63;8.53;;;;;;;-5.77;84.72;102563.22;5012034;28;20022;-75
